Time;durP1;ratioP1;P1;durP2;ratioP2;P2;SDS_P1;SDS_P2;PMS_P1;PMS_P2;Temp;Humidity;BMP_temperature;BMP_pressure;BME280_temperature;BME280_humidity;BME280_pressure;Samples;Min_cycle;Max_cycle;Signal;HPM_P1;HPM_P2
2023/12/02 00:00:58;;;;;;;24.75;8.32;;;2.80;99.90;;;;;;4929751;28;20091;-75
2023/12/02 00:03:27;;;;;;;26.10;8.70;;;2.90;99.90;;;;;;4908059;29;20182;-75
2023/12/02 00:05:56;;;;;;;29.52;9.75;;;2.80;99.90;;;;;;4898354;29;20063;-75
2023/12/02 00:08:24;;;;;;;37.67;9.13;;;2.80;99.90;;;;;;4934075;28;20131;-73
2023/12/02 00:10:53;;;;;;;34.58;12.13;;;2.80;99.90;;;;;;4905749;29;20134;-75
2023/12/02 00:13:22;;;;;;;34.70;10.85;;;2.80;99.90;;;;;;4919479;28;21222;-76
2023/12/02 00:15:51;;;;;;;53.80;14.20;;;2.80;99.90;;;;;;4919719;29;20155;-78
2023/12/02 00:18:20;;;;;;;63.42;14.70;;;2.80;99.90;;;;;;4943250;28;20047;-81
2023/12/02 00:20:49;;;;;;;47.55;13.88;;;2.90;99.90;;;;;;4925788;29;20048;-76
2023/12/02 00:23:18;;;;;;;45.63;13.50;;;2.80;99.90;;;;;;4927313;29;22030;-77
2023/12/02 00:25:47;;;;;;;32.08;11.30;;;2.90;99.90;;;;;;4944036;28;20075;-77
2023/12/02 00:28:15;;;;;;;34.80;10.57;;;2.90;99.90;;;;;;4941510;28;22078;-77
2023/12/02 00:30:45;;;;;;;40.33;12.13;;;2.90;99.90;;;;;;4946637;28;20071;-78
2023/12/02 00:33:14;;;;;;;36.63;12.20;;;2.90;99.90;;;;;;4932756;29;20052;-78
2023/12/02 00:35:43;;;;;;;40.50;13.93;;;2.80;99.90;;;;;;4923696;29;22517;-78
2023/12/02 00:38:12;;;;;;;38.13;12.48;;;3.70;99.90;;;;;;4933784;29;20062;-79
2023/12/02 00:40:40;;;;;;;36.30;10.27;;;2.90;99.90;;;;;;4936734;28;20148;-78
2023/12/02 00:43:09;;;;;;;34.03;11.52;;;2.90;99.90;;;;;;4922214;29;20062;-78
2023/12/02 00:45:37;;;;;;;29.40;9.80;;;3.00;99.90;;;;;;4933976;29;20092;-80
2023/12/02 00:48:07;;;;;;;31.50;10.23;;;3.00;99.90;;;;;;4923436;29;20043;-78
2023/12/02 00:50:36;;;;;;;31.77;11.50;;;1.70;99.90;;;;;;4939723;28;20103;-79
2023/12/02 00:53:05;;;;;;;26.83;8.95;;;3.20;99.90;;;;;;4924071;29;20047;-81
2023/12/02 00:55:33;;;;;;;31.25;10.90;;;3.00;99.90;;;;;;4938507;28;20062;-78
2023/12/02 00:58:02;;;;;;;29.65;10.55;;;2.90;99.90;;;;;;4941295;29;20066;-79
2023/12/02 01:00:31;;;;;;;28.48;9.50;;;3.40;99.90;;;;;;4927330;29;20036;-83
2023/12/02 01:02:59;;;;;;;32.85;8.32;;;2.90;99.90;;;;;;4955861;29;20071;-78
2023/12/02 01:05:29;;;;;;;38.10;10.23;;;3.20;99.90;;;;;;4918710;29;20043;-79
2023/12/02 01:07:58;;;;;;;28.05;9.15;;;2.90;99.90;;;;;;4922076;29;20055;-79
2023/12/02 01:10:26;;;;;;;30.45;8.43;;;3.00;99.90;;;;;;4924516;29;20056;-78
2023/12/02 01:12:55;;;;;;;28.35;8.27;;;3.00;99.90;;;;;;4924294;29;22068;-78
2023/12/02 01:15:23;;;;;;;27.95;8.95;;;3.00;99.90;;;;;;4923030;29;20036;-79
2023/12/02 01:17:52;;;;;;;25.52;8.05;;;2.90;99.90;;;;;;4931935;29;20078;-82
2023/12/02 01:20:21;;;;;;;27.92;8.52;;;3.00;99.90;;;;;;4941011;28;20051;-79
2023/12/02 01:22:51;;;;;;;25.42;8.07;;;3.00;99.90;;;;;;4924766;29;20821;-78
2023/12/02 01:25:19;;;;;;;20.83;7.78;;;3.10;99.90;;;;;;4924428;29;20156;-80
2023/12/02 01:27:49;;;;;;;21.95;7.95;;;3.00;99.90;;;;;;4924268;29;20059;-77
2023/12/02 01:30:17;;;;;;;24.80;8.10;;;3.00;99.90;;;;;;4924402;29;20048;-79
2023/12/02 01:32:46;;;;;;;26.48;8.60;;;3.00;99.90;;;;;;4920996;29;20060;-79
2023/12/02 01:35:15;;;;;;;32.30;9.93;;;3.10;99.90;;;;;;4926281;29;20071;-77
2023/12/02 01:37:43;;;;;;;29.92;9.20;;;1.80;99.90;;;;;;4909728;29;20063;-76
2023/12/02 01:40:14;;;;;;;27.02;7.72;;;3.00;99.90;;;;;;4903994;29;20055;-76
2023/12/02 01:42:42;;;;;;;28.13;8.63;;;3.00;99.90;;;;;;4905883;29;20146;-76
2023/12/02 01:45:11;;;;;;;23.92;7.75;;;3.00;99.90;;;;;;4902319;29;20697;-76
2023/12/02 01:47:40;;;;;;;26.92;8.75;;;3.00;99.90;;;;;;4905217;29;20085;-77
2023/12/02 01:50:10;;;;;;;28.80;9.10;;;3.00;99.90;;;;;;4901842;29;20080;-76
2023/12/02 01:52:38;;;;;;;28.83;9.05;;;3.00;99.90;;;;;;4900511;29;20051;-76
2023/12/02 01:55:08;;;;;;;32.13;11.02;;;3.00;99.90;;;;;;4902901;29;20455;-76
2023/12/02 01:57:38;;;;;;;30.38;9.20;;;3.00;99.90;;;;;;4899040;29;20703;-76
2023/12/02 02:00:09;;;;;;;29.80;8.25;;;3.00;99.90;;;;;;4898972;29;20051;-77
2023/12/02 02:02:41;;;;;;;27.83;8.70;;;3.00;99.90;;;;;;4895161;29;20051;-76
2023/12/02 02:05:09;;;;;;;27.13;8.85;;;3.00;99.90;;;;;;4898570;29;20055;-76
2023/12/02 02:07:38;;;;;;;26.20;8.45;;;3.00;99.90;;;;;;4913191;28;20290;-76
2023/12/02 02:10:07;;;;;;;23.23;8.50;;;3.00;99.90;;;;;;4898048;29;20051;-75
2023/12/02 02:12:36;;;;;;;35.15;9.50;;;3.00;99.90;;;;;;4895477;29;20052;-76
2023/12/02 02:15:07;;;;;;;29.23;9.18;;;3.00;99.90;;;;;;4891958;29;20182;-76
2023/12/02 02:17:36;;;;;;;27.23;8.13;;;3.10;99.90;;;;;;4892178;29;20059;-76
2023/12/02 02:20:05;;;;;;;28.63;8.63;;;3.10;99.90;;;;;;4920106;28;20796;-76
2023/12/02 02:22:35;;;;;;;21.33;7.43;;;3.10;99.90;;;;;;4908193;28;20427;-76
2023/12/02 02:25:04;;;;;;;29.52;8.50;;;3.10;99.90;;;;;;4892810;29;20060;-76
2023/12/02 02:27:33;;;;;;;22.92;7.40;;;3.00;99.90;;;;;;4895448;29;20581;-76
2023/12/02 02:30:01;;;;;;;25.42;8.20;;;3.00;99.90;;;;;;4895483;29;20170;-76
2023/12/02 02:32:30;;;;;;;23.25;7.30;;;3.00;99.90;;;;;;4895754;29;20547;-77
2023/12/02 02:34:58;;;;;;;21.85;6.88;;;3.10;99.90;;;;;;4892455;29;20191;-76
2023/12/02 02:37:27;;;;;;;28.63;8.38;;;3.10;99.90;;;;;;4901427;29;20082;-76
2023/12/02 02:39:56;;;;;;;28.10;7.22;;;3.10;99.90;;;;;;4905047;29;21991;-78
2023/12/02 02:42:25;;;;;;;27.85;7.55;;;3.10;99.90;;;;;;4910508;29;20199;-77
2023/12/02 02:44:53;;;;;;;25.75;8.00;;;3.10;99.90;;;;;;4895557;29;20067;-77
2023/12/02 02:47:22;;;;;;;26.23;7.13;;;3.50;99.90;;;;;;4911490;29;20055;-79
2023/12/02 02:49:50;;;;;;;26.30;7.70;;;3.10;99.90;;;;;;4920832;29;20151;-78
2023/12/02 02:52:19;;;;;;;26.05;7.78;;;3.10;99.90;;;;;;4919593;29;20056;-78
2023/12/02 02:54:47;;;;;;;28.83;8.38;;;3.10;99.90;;;;;;4916040;29;20076;-78
2023/12/02 02:57:21;;;;;;;28.15;6.97;;;3.10;99.90;;;;;;4933780;28;20127;-80
2023/12/02 02:59:49;;;;;;;23.58;7.53;;;3.10;99.90;;;;;;4921599;29;20055;-79
2023/12/02 03:02:18;;;;;;;24.58;6.80;;;3.10;99.90;;;;;;4917932;29;21314;-78
2023/12/02 03:04:46;;;;;;;26.17;6.45;;;3.10;99.90;;;;;;4934322;28;20055;-78
2023/12/02 03:07:15;;;;;;;20.25;6.28;;;3.10;99.90;;;;;;4933997;29;20071;-79
2023/12/02 03:09:44;;;;;;;22.38;6.50;;;2.70;99.90;;;;;;4918041;29;20056;-79
2023/12/02 03:12:12;;;;;;;20.20;6.40;;;3.10;99.90;;;;;;4916188;29;22573;-80
2023/12/02 03:14:42;;;;;;;23.35;7.53;;;3.10;99.90;;;;;;4935247;29;20083;-78
2023/12/02 03:17:11;;;;;;;20.88;6.57;;;3.10;99.90;;;;;;4914984;29;20046;-79
2023/12/02 03:19:39;;;;;;;21.58;7.22;;;3.40;99.90;;;;;;4919023;29;20043;-79
2023/12/02 03:22:08;;;;;;;23.42;6.22;;;3.20;99.90;;;;;;4921609;29;20086;-79
2023/12/02 03:24:37;;;;;;;21.27;6.40;;;3.30;99.90;;;;;;4947531;28;20142;-80
2023/12/02 03:27:06;;;;;;;23.63;7.07;;;3.10;99.90;;;;;;4917504;29;20138;-78
2023/12/02 03:29:35;;;;;;;23.95;6.80;;;3.10;99.90;;;;;;4915755;29;20050;-81
2023/12/02 03:32:06;;;;;;;23.02;7.00;;;3.20;99.90;;;;;;4918658;29;20051;-79
2023/12/02 03:34:34;;;;;;;17.63;5.80;;;3.20;99.90;;;;;;4918684;29;20039;-80
2023/12/02 03:37:04;;;;;;;29.20;8.02;;;3.20;99.90;;;;;;4939686;28;20051;-80
2023/12/02 03:39:32;;;;;;;25.77;8.73;;;3.20;99.90;;;;;;4922158;29;20056;-78
2023/12/02 03:42:01;;;;;;;21.95;7.07;;;3.20;99.90;;;;;;4932615;28;20054;-78
2023/12/02 03:44:29;;;;;;;19.88;6.30;;;3.20;99.90;;;;;;4925916;29;20059;-83
2023/12/02 03:46:58;;;;;;;25.52;6.88;;;3.20;99.90;;;;;;4925654;29;20059;-78
2023/12/02 03:49:28;;;;;;;20.50;6.22;;;3.20;99.90;;;;;;4923039;29;20164;-79
2023/12/02 03:51:59;;;;;;;26.23;7.35;;;1.60;99.90;;;;;;4923179;29;20038;-79
2023/12/02 03:54:27;;;;;;;20.70;6.57;;;3.10;99.90;;;;;;4921028;29;20061;-80
2023/12/02 03:56:56;;;;;;;22.08;6.63;;;3.20;99.90;;;;;;4938041;29;20051;-80
2023/12/02 03:59:25;;;;;;;28.48;7.97;;;3.30;99.90;;;;;;4937044;28;20103;-81
2023/12/02 04:01:53;;;;;;;25.05;7.28;;;3.30;99.90;;;;;;4922145;29;20052;-81
2023/12/02 04:04:22;;;;;;;23.73;7.10;;;3.20;99.90;;;;;;4923097;29;20052;-78
2023/12/02 04:06:53;;;;;;;23.02;6.35;;;3.20;99.90;;;;;;4955132;28;20051;-79
2023/12/02 04:09:21;;;;;;;23.33;6.68;;;4.20;99.90;;;;;;4935982;28;20048;-79
2023/12/02 04:11:50;;;;;;;25.60;7.45;;;3.20;99.90;;;;;;4922682;28;20035;-82
2023/12/02 04:14:19;;;;;;;19.83;5.90;;;3.20;99.90;;;;;;4939362;29;20062;-80
2023/12/02 04:16:48;;;;;;;26.02;6.88;;;3.50;99.90;;;;;;4930644;29;20083;-81
2023/12/02 04:19:17;;;;;;;25.55;7.70;;;3.20;99.90;;;;;;4936411;28;20176;-79
2023/12/02 04:21:46;;;;;;;24.55;8.15;;;3.20;99.90;;;;;;4916866;29;20043;-79
2023/12/02 04:24:17;;;;;;;22.92;6.30;;;3.30;99.90;;;;;;4936848;28;20043;-78
2023/12/02 04:26:46;;;;;;;19.58;6.40;;;3.30;99.90;;;;;;4933988;29;20086;-79
2023/12/02 04:29:15;;;;;;;23.42;6.75;;;3.20;99.90;;;;;;4920263;29;20071;-78
2023/12/02 04:31:43;;;;;;;19.70;5.82;;;3.30;99.90;;;;;;4937689;28;22217;-77
2023/12/02 04:34:12;;;;;;;18.00;5.88;;;3.30;99.90;;;;;;4931162;29;20079;-79
2023/12/02 04:36:43;;;;;;;18.95;5.90;;;3.30;99.90;;;;;;4930968;29;20051;-80
2023/12/02 04:39:12;;;;;;;25.25;6.53;;;3.30;99.90;;;;;;4929047;29;20066;-79
2023/12/02 04:41:42;;;;;;;22.63;7.00;;;3.20;99.90;;;;;;4936856;29;22022;-78
2023/12/02 04:44:11;;;;;;;24.45;6.90;;;3.20;99.90;;;;;;4922153;29;20051;-80
2023/12/02 04:46:43;;;;;;;21.65;6.32;;;3.40;99.90;;;;;;4933657;29;20054;-80
2023/12/02 04:49:13;;;;;;;23.77;6.80;;;3.30;99.90;;;;;;4926316;29;20055;-79
2023/12/02 04:51:42;;;;;;;22.45;6.50;;;3.30;99.90;;;;;;4929058;29;20071;-79
2023/12/02 04:54:10;;;;;;;27.23;7.97;;;3.80;99.90;;;;;;4941744;28;20055;-80
2023/12/02 04:56:39;;;;;;;22.73;7.20;;;3.40;99.90;;;;;;4927145;29;20055;-80
2023/12/02 04:59:09;;;;;;;23.25;7.07;;;3.40;99.90;;;;;;4937402;28;20115;-78
2023/12/02 05:01:38;;;;;;;22.50;6.97;;;3.30;99.90;;;;;;4919811;29;20054;-80
2023/12/02 05:04:07;;;;;;;21.25;6.93;;;3.30;99.90;;;;;;4932156;29;20035;-78
2023/12/02 05:06:35;;;;;;;20.60;6.03;;;3.40;99.90;;;;;;4952645;28;20194;-77
2023/12/02 05:09:04;;;;;;;22.02;7.53;;;3.30;99.90;;;;;;4897081;29;20051;-75
2023/12/02 05:11:35;;;;;;;30.17;6.95;;;3.30;99.90;;;;;;4896713;29;20055;-76
2023/12/02 05:14:03;;;;;;;28.80;8.27;;;3.20;99.90;;;;;;4896104;29;20787;-75
2023/12/02 05:16:33;;;;;;;26.85;7.97;;;3.20;99.90;;;;;;4899100;29;20495;-75
2023/12/02 05:19:01;;;;;;;26.83;7.85;;;3.30;99.90;;;;;;4898357;29;20062;-75
2023/12/02 05:21:30;;;;;;;24.52;6.78;;;3.20;99.90;;;;;;4897954;29;20051;-76
2023/12/02 05:23:58;;;;;;;28.98;7.97;;;3.30;99.90;;;;;;4896427;29;20800;-75
2023/12/02 05:26:27;;;;;;;24.52;6.80;;;3.30;99.90;;;;;;4897240;29;20051;-75
2023/12/02 05:28:55;;;;;;;26.02;7.05;;;3.30;99.90;;;;;;4917300;29;20095;-77
2023/12/02 05:31:24;;;;;;;21.67;6.88;;;3.20;99.90;;;;;;4925363;28;20138;-76
2023/12/02 05:33:54;;;;;;;26.05;8.00;;;3.20;99.90;;;;;;4896812;29;21062;-76
2023/12/02 05:36:22;;;;;;;26.73;7.18;;;3.30;99.90;;;;;;4899463;29;21474;-75
2023/12/02 05:38:51;;;;;;;28.88;7.43;;;3.20;99.90;;;;;;4894892;29;20150;-75
2023/12/02 05:41:19;;;;;;;22.65;6.75;;;3.20;99.90;;;;;;4911781;28;20056;-76
2023/12/02 05:43:48;;;;;;;24.83;7.47;;;3.30;99.90;;;;;;4896388;29;20535;-76
2023/12/02 05:46:17;;;;;;;28.88;8.05;;;3.20;99.90;;;;;;4908737;28;20094;-77
2023/12/02 05:48:45;;;;;;;28.63;7.00;;;3.20;99.90;;;;;;4910845;28;20079;-76
2023/12/02 05:51:15;;;;;;;20.58;7.05;;;3.30;99.90;;;;;;4905859;29;20044;-75
2023/12/02 05:53:44;;;;;;;22.48;7.40;;;3.20;99.90;;;;;;4905017;29;20135;-75
2023/12/02 05:56:13;;;;;;;27.17;8.38;;;3.20;99.90;;;;;;4895490;29;20135;-77
2023/12/02 05:58:42;;;;;;;25.35;7.15;;;3.20;99.90;;;;;;4898443;29;20047;-76
2023/12/02 06:01:11;;;;;;;29.30;8.07;;;3.20;99.90;;;;;;4913750;29;20224;-76
2023/12/02 06:03:39;;;;;;;23.45;6.63;;;3.30;99.90;;;;;;4893589;29;22260;-77
2023/12/02 06:06:11;;;;;;;26.25;8.02;;;3.20;99.90;;;;;;4897279;29;20115;-75
2023/12/02 06:08:41;;;;;;;23.05;7.03;;;3.20;99.90;;;;;;4913492;29;20052;-76
2023/12/02 06:11:10;;;;;;;24.15;7.25;;;3.30;99.90;;;;;;4904201;29;21402;-76
2023/12/02 06:13:38;;;;;;;23.92;7.03;;;3.30;99.90;;;;;;4895913;29;20060;-74
2023/12/02 06:16:07;;;;;;;26.00;7.07;;;3.30;99.90;;;;;;4904244;28;20055;-76
2023/12/02 06:18:35;;;;;;;22.67;6.93;;;3.30;99.90;;;;;;4915129;29;20642;-78
2023/12/02 06:21:04;;;;;;;25.45;7.60;;;3.30;99.90;;;;;;4913356;29;20759;-78
2023/12/02 06:23:33;;;;;;;23.23;7.05;;;3.30;99.90;;;;;;4917635;29;20057;-78
2023/12/02 06:26:03;;;;;;;24.23;7.78;;;3.30;99.90;;;;;;4936563;28;20047;-79
2023/12/02 06:28:31;;;;;;;26.80;7.72;;;3.30;99.90;;;;;;4922130;29;20591;-79
2023/12/02 06:31:00;;;;;;;28.55;8.02;;;3.40;99.90;;;;;;4919363;29;20051;-78
2023/12/02 06:33:28;;;;;;;31.17;8.77;;;3.30;99.90;;;;;;4923808;29;20063;-78
2023/12/02 06:35:57;;;;;;;23.63;7.30;;;3.30;99.90;;;;;;4918778;29;20050;-79
2023/12/02 06:38:26;;;;;;;27.33;8.95;;;3.20;99.90;;;;;;4918398;29;22028;-78
2023/12/02 06:40:55;;;;;;;30.73;9.02;;;3.30;99.90;;;;;;4925142;29;20075;-80
2023/12/02 06:43:25;;;;;;;29.88;9.30;;;3.30;99.90;;;;;;4917390;29;20056;-79
2023/12/02 06:45:54;;;;;;;29.42;8.82;;;3.30;99.90;;;;;;4925708;29;20064;-79
2023/12/02 06:48:22;;;;;;;31.27;8.80;;;3.30;99.90;;;;;;4914915;29;20063;-77
2023/12/02 06:50:51;;;;;;;36.13;8.82;;;3.30;99.90;;;;;;4942171;28;20059;-78
2023/12/02 06:53:19;;;;;;;34.95;9.50;;;3.30;99.90;;;;;;4917379;29;20063;-78
2023/12/02 06:55:48;;;;;;;36.65;9.63;;;3.30;99.90;;;;;;4918946;29;20062;-78
2023/12/02 06:58:17;;;;;;;28.63;9.02;;;3.30;99.90;;;;;;4915325;29;20194;-79
2023/12/02 07:00:47;;;;;;;33.03;9.73;;;3.50;99.90;;;;;;4920012;29;20889;-80
2023/12/02 07:03:16;;;;;;;34.03;9.52;;;3.30;99.90;;;;;;4923698;29;20048;-82
2023/12/02 07:05:44;;;;;;;30.88;9.18;;;3.30;99.90;;;;;;4929726;29;20055;-80
2023/12/02 07:08:13;;;;;;;36.28;10.63;;;3.30;99.90;;;;;;4938387;29;20094;-80
2023/12/02 07:10:42;;;;;;;30.00;8.80;;;3.40;99.90;;;;;;4938640;28;20044;-81
2023/12/02 07:13:11;;;;;;;31.60;9.70;;;3.30;99.90;;;;;;4923181;29;20090;-79
2023/12/02 07:15:39;;;;;;;26.10;8.75;;;3.40;99.90;;;;;;4922940;29;20044;-81
2023/12/02 07:18:10;;;;;;;38.00;10.07;;;3.30;99.90;;;;;;4922718;29;20048;-79
2023/12/02 07:20:39;;;;;;;34.80;10.18;;;5.30;99.90;;;;;;4935540;28;20051;-80
2023/12/02 07:23:08;;;;;;;34.92;8.90;;;3.30;99.90;;;;;;4923393;29;20060;-78
2023/12/02 07:25:36;;;;;;;29.58;8.07;;;3.90;99.90;;;;;;4923752;29;20047;-80
2023/12/02 07:28:05;;;;;;;28.85;10.10;;;4.10;99.90;;;;;;4936204;29;20047;-79
2023/12/02 07:30:34;;;;;;;34.28;9.30;;;3.50;99.90;;;;;;4927877;29;20056;-81
2023/12/02 07:33:03;;;;;;;34.15;10.57;;;3.40;99.90;;;;;;4941357;28;20123;-80
2023/12/02 07:35:33;;;;;;;23.90;9.10;;;3.40;99.90;;;;;;4956886;28;20137;-82
2023/12/02 07:38:02;;;;;;;30.23;9.00;;;3.30;99.90;;;;;;4928259;29;20056;-81
2023/12/02 07:40:31;;;;;;;29.73;9.25;;;3.40;99.90;;;;;;4946055;29;20115;-82
2023/12/02 07:42:59;;;;;;;29.15;8.90;;;3.20;99.90;;;;;;4930534;29;20055;-79
2023/12/02 07:45:28;;;;;;;30.00;8.05;;;3.40;99.90;;;;;;4940436;29;20148;-82
2023/12/02 07:47:57;;;;;;;33.40;10.70;;;3.40;99.90;;;;;;4931796;29;20052;-80
2023/12/02 07:50:26;;;;;;;26.42;9.52;;;3.50;99.90;;;;;;4940319;29;20071;-84
2023/12/02 07:52:56;;;;;;;35.90;9.88;;;3.50;99.90;;;;;;4933529;29;20281;-81
2023/12/02 07:55:24;;;;;;;28.58;9.32;;;3.50;99.90;;;;;;4930450;29;20056;-82
2023/12/02 07:57:53;;;;;;;32.92;9.35;;;3.50;99.90;;;;;;4942683;29;20038;-79
2023/12/02 08:00:22;;;;;;;25.08;7.97;;;3.60;99.90;;;;;;4923858;29;20040;-79
2023/12/02 08:02:51;;;;;;;35.75;10.30;;;3.50;99.90;;;;;;4929243;29;20051;-81
2023/12/02 08:05:19;;;;;;;23.52;8.13;;;2.30;99.90;;;;;;4938814;29;20054;-81
2023/12/02 08:07:51;;;;;;;29.00;9.65;;;3.60;99.90;;;;;;4929511;29;20132;-78
2023/12/02 08:10:22;;;;;;;29.10;8.52;;;3.60;99.90;;;;;;4928062;29;20056;-80
2023/12/02 08:12:50;;;;;;;26.00;9.45;;;3.70;99.90;;;;;;4924679;29;20052;-80
2023/12/02 08:15:19;;;;;;;24.35;8.20;;;3.70;99.90;;;;;;4949698;28;20115;-80
2023/12/02 08:17:49;;;;;;;25.73;8.50;;;3.70;99.90;;;;;;4931028;29;20060;-80
2023/12/02 08:20:18;;;;;;;24.58;7.60;;;3.60;99.90;;;;;;4924827;29;20070;-79
2023/12/02 08:22:47;;;;;;;28.17;8.95;;;3.60;99.90;;;;;;4924229;29;20072;-79
2023/12/02 08:25:15;;;;;;;29.45;8.65;;;3.70;99.90;;;;;;4924411;29;20051;-80
2023/12/02 08:27:45;;;;;;;26.48;8.25;;;3.40;99.90;;;;;;4948748;28;20123;-79
2023/12/02 08:30:15;;;;;;;30.23;9.48;;;3.70;99.90;;;;;;4943268;28;20040;-79
2023/12/02 08:32:44;;;;;;;27.38;9.75;;;3.80;99.90;;;;;;4923986;29;20052;-79
2023/12/02 08:35:12;;;;;;;28.67;8.90;;;4.00;99.90;;;;;;4926450;29;20050;-79
2023/12/02 08:37:41;;;;;;;30.38;8.18;;;4.90;99.90;;;;;;4924040;29;20916;-76
2023/12/02 08:40:10;;;;;;;28.50;8.07;;;3.90;99.90;;;;;;4912661;28;20183;-77
2023/12/02 08:42:38;;;;;;;33.15;9.90;;;3.90;99.90;;;;;;4913680;29;20906;-76
2023/12/02 08:45:09;;;;;;;36.05;10.65;;;3.90;99.90;;;;;;4910890;28;20098;-77
2023/12/02 08:47:37;;;;;;;30.70;9.02;;;3.90;99.90;;;;;;4899484;29;20052;-75
2023/12/02 08:50:07;;;;;;;32.15;10.73;;;3.90;99.90;;;;;;4898895;29;20466;-76
2023/12/02 08:52:36;;;;;;;36.28;9.85;;;3.90;99.90;;;;;;4912751;28;20104;-75
2023/12/02 08:55:05;;;;;;;32.35;11.43;;;3.90;99.90;;;;;;4895860;29;20417;-76
2023/12/02 08:57:34;;;;;;;35.40;12.15;;;3.90;99.90;;;;;;4914345;29;20047;-76
2023/12/02 09:00:04;;;;;;;33.05;11.45;;;3.90;99.90;;;;;;4913416;28;20114;-76
2023/12/02 09:02:35;;;;;;;33.67;10.35;;;3.90;99.90;;;;;;4905312;29;20404;-77
2023/12/02 09:05:05;;;;;;;30.10;8.98;;;3.90;99.90;;;;;;4915460;29;20391;-75
2023/12/02 09:07:33;;;;;;;34.35;10.85;;;3.90;99.90;;;;;;4906667;29;20067;-76
2023/12/02 09:10:03;;;;;;;35.38;9.80;;;3.90;99.90;;;;;;4916408;28;20146;-77
2023/12/02 09:12:32;;;;;;;32.00;10.38;;;3.90;99.90;;;;;;4901884;29;20068;-78
2023/12/02 09:15:06;;;;;;;34.08;10.15;;;3.90;99.90;;;;;;4909303;29;20047;-78
2023/12/02 09:18:07;;;;;;;36.05;11.10;;;3.90;99.90;;;;;;4903074;29;20063;-76
2023/12/02 09:20:45;;;;;;;39.50;10.77;;;4.00;99.90;;;;;;4944599;28;20055;-75
2023/12/02 09:23:16;;;;;;;40.20;12.25;;;4.00;99.90;;;;;;4902952;29;21938;-76
2023/12/02 09:25:45;;;;;;;34.50;11.15;;;4.10;99.90;;;;;;4901451;29;20043;-77
2023/12/02 09:28:20;;;;;;;35.15;11.55;;;4.10;99.90;;;;;;4915425;29;20047;-76
2023/12/02 09:31:06;;;;;;;31.27;13.05;;;4.20;99.90;;;;;;4901309;29;20114;-76
2023/12/02 09:33:39;;;;;;;30.85;10.50;;;4.20;99.90;;;;;;4903588;29;20055;-76
2023/12/02 09:36:26;;;;;;;31.10;9.20;;;4.30;99.90;;;;;;4917704;28;20068;-76
2023/12/02 09:38:55;;;;;;;38.60;11.95;;;4.30;99.90;;;;;;4906569;29;20055;-76
2023/12/02 09:41:33;;;;;;;37.47;11.38;;;4.30;99.90;;;;;;4908399;29;20194;-78
2023/12/02 09:44:20;;;;;;;35.25;10.50;;;4.40;99.90;;;;;;4912262;28;20186;-76
2023/12/02 09:47:07;;;;;;;39.47;10.68;;;4.40;99.90;;;;;;4901633;29;20075;-78
2023/12/02 09:49:59;;;;;;;39.55;12.30;;;4.40;99.90;;;;;;4940409;28;20140;-80
2023/12/02 09:52:49;;;;;;;30.23;10.48;;;4.40;99.90;;;;;;4943782;28;20074;-78
2023/12/02 09:55:23;;;;;;;31.35;11.23;;;4.30;99.90;;;;;;4943769;28;20048;-81
2023/12/02 09:57:59;;;;;;;34.55;11.90;;;4.40;99.90;;;;;;4935748;28;20083;-78
2023/12/02 10:00:40;;;;;;;34.40;10.63;;;4.30;99.90;;;;;;4919601;29;20091;-78
2023/12/02 10:03:40;;;;;;;41.55;14.60;;;4.30;99.90;;;;;;4922315;29;20059;-78
2023/12/02 10:06:28;;;;;;;43.03;14.60;;;4.30;99.90;;;;;;4936911;29;20077;-78
2023/12/02 10:09:07;;;;;;;29.27;11.32;;;4.30;99.90;;;;;;4925386;29;21997;-82
2023/12/02 10:11:44;;;;;;;36.13;13.00;;;4.30;99.90;;;;;;4923980;29;20059;-80
2023/12/02 10:14:13;;;;;;;37.63;13.98;;;4.40;99.90;;;;;;4920827;29;20051;-79
2023/12/02 10:16:44;;;;;;;31.15;13.30;;;4.20;99.90;;;;;;4921741;29;20054;-78
2023/12/02 10:19:19;;;;;;;34.75;11.48;;;4.40;99.90;;;;;;4926948;29;20044;-79
2023/12/02 10:21:54;;;;;;;33.00;11.70;;;4.40;99.90;;;;;;4921658;29;20121;-78
2023/12/02 10:24:33;;;;;;;34.72;12.25;;;4.80;99.90;;;;;;4917661;29;20051;-80
2023/12/02 10:27:07;;;;;;;33.85;11.70;;;4.40;99.90;;;;;;4926313;29;20680;-78
2023/12/02 10:29:41;;;;;;;35.10;12.38;;;4.30;99.90;;;;;;4928019;29;20449;-80
2023/12/02 10:32:17;;;;;;;34.70;12.52;;;3.80;99.90;;;;;;4923540;29;22202;-78
2023/12/02 10:34:56;;;;;;;44.28;13.50;;;4.40;99.90;;;;;;4920247;29;20051;-78
2023/12/02 10:37:36;;;;;;;43.67;13.10;;;4.30;99.90;;;;;;4944581;28;20063;-79
2023/12/02 10:40:09;;;;;;;42.83;13.90;;;4.30;99.90;;;;;;4917388;29;20101;-78
2023/12/02 10:42:50;;;;;;;38.22;11.95;;;4.40;99.90;;;;;;4945604;28;20119;-82
2023/12/02 10:45:21;;;;;;;32.47;11.00;;;4.40;99.90;;;;;;4915356;29;20080;-78
2023/12/02 10:47:52;;;;;;;31.08;10.65;;;4.40;99.90;;;;;;4917807;29;20154;-80
2023/12/02 10:50:22;;;;;;;39.10;12.93;;;3.70;99.90;;;;;;4920776;29;20052;-81
2023/12/02 10:52:58;;;;;;;40.40;13.38;;;4.40;99.90;;;;;;4921589;28;20101;-80
2023/12/02 10:55:29;;;;;;;38.63;13.10;;;4.50;99.90;;;;;;4922871;29;20086;-78
2023/12/02 10:57:58;;;;;;;41.08;13.63;;;5.10;99.90;;;;;;4934864;28;20050;-80
2023/12/02 11:00:31;;;;;;;33.47;12.38;;;4.60;99.90;;;;;;4920471;29;20066;-78
2023/12/02 11:03:07;;;;;;;47.63;17.27;;;4.60;99.90;;;;;;4924821;29;20066;-78
2023/12/02 11:05:45;;;;;;;41.42;14.63;;;4.70;99.90;;;;;;4937509;28;20055;-78
2023/12/02 11:08:21;;;;;;;38.35;13.05;;;4.70;99.90;;;;;;4936984;28;20154;-79
2023/12/02 11:10:54;;;;;;;36.83;12.98;;;4.70;99.90;;;;;;4917574;29;21339;-79
2023/12/02 11:13:25;;;;;;;43.95;15.10;;;4.70;99.90;;;;;;4934805;28;20059;-79
2023/12/02 11:16:16;;;;;;;49.70;17.88;;;4.70;99.90;;;;;;4933609;28;20075;-78
2023/12/02 11:19:10;;;;;;;44.40;14.82;;;4.70;99.90;;;;;;4917921;29;20044;-79
2023/12/02 11:21:51;;;;;;;46.10;15.75;;;5.00;99.90;;;;;;4932067;28;21924;-81
2023/12/02 11:24:35;;;;;;;36.85;12.30;;;4.70;99.90;;;;;;4919603;29;20099;-80
2023/12/02 11:27:13;;;;;;;42.47;13.25;;;4.70;99.90;;;;;;4918976;29;20051;-78
2023/12/02 11:29:49;;;;;;;41.10;13.68;;;4.70;99.90;;;;;;4929218;29;20062;-77
2023/12/02 11:32:25;;;;;;;43.15;14.55;;;4.60;99.90;;;;;;4916270;29;20059;-79
2023/12/02 11:35:09;;;;;;;44.03;14.52;;;4.80;99.90;;;;;;4934803;28;20083;-78
2023/12/02 11:37:56;;;;;;;58.10;20.60;;;4.80;99.90;;;;;;4920880;29;20055;-78
2023/12/02 11:40:38;;;;;;;148.02;68.25;;;4.80;99.90;;;;;;4920467;29;20123;-78
2023/12/02 11:43:15;;;;;;;43.55;15.68;;;4.90;99.90;;;;;;4916265;29;20055;-79
2023/12/02 11:45:53;;;;;;;48.83;15.57;;;4.80;99.90;;;;;;4917551;29;20182;-78
2023/12/02 11:48:35;;;;;;;38.60;14.43;;;4.80;99.90;;;;;;4914145;29;20048;-77
2023/12/02 11:51:19;;;;;;;60.40;28.42;;;4.80;99.90;;;;;;4923969;29;20587;-77
2023/12/02 11:54:14;;;;;;;80.00;40.88;;;4.90;99.90;;;;;;4917136;29;20052;-79
2023/12/02 11:56:55;;;;;;;50.60;20.05;;;4.90;99.90;;;;;;4918493;29;20051;-79
2023/12/02 11:59:34;;;;;;;47.03;15.43;;;4.90;99.90;;;;;;4918203;29;20055;-78
2023/12/02 12:02:09;;;;;;;63.97;22.75;;;4.70;99.90;;;;;;4930458;29;20056;-79
2023/12/02 12:05:05;;;;;;;52.78;17.25;;;4.90;99.90;;;;;;4916685;29;20074;-80
2023/12/02 12:07:47;;;;;;;90.40;40.35;;;4.80;99.90;;;;;;4918005;29;20578;-75
2023/12/02 12:10:25;;;;;;;66.18;22.73;;;4.80;99.90;;;;;;4899763;29;20149;-75
2023/12/02 12:12:57;;;;;;;61.63;17.48;;;4.80;99.90;;;;;;4903938;29;20430;-75
2023/12/02 12:15:26;;;;;;;60.78;18.17;;;4.90;99.90;;;;;;4904553;29;22398;-75
2023/12/02 12:17:54;;;;;;;65.72;22.35;;;4.80;99.90;;;;;;4903215;29;20063;-75
2023/12/02 12:20:25;;;;;;;78.47;26.55;;;4.80;99.90;;;;;;4900956;29;20058;-75
2023/12/02 12:22:54;;;;;;;52.38;17.15;;;4.80;99.90;;;;;;4918064;29;20059;-75
2023/12/02 12:25:28;;;;;;;66.13;24.35;;;4.80;99.90;;;;;;4902617;29;20114;-75
2023/12/02 12:28:03;;;;;;;106.40;41.35;;;4.80;99.90;;;;;;4903853;29;20063;-76
2023/12/02 12:30:43;;;;;;;70.80;27.92;;;4.80;99.90;;;;;;4903587;29;20051;-76
2023/12/02 12:33:14;;;;;;;126.45;51.92;;;4.80;99.90;;;;;;4918955;28;20994;-76
2023/12/02 12:35:43;;;;;;;60.95;23.33;;;4.70;99.90;;;;;;4911060;29;20142;-76
2023/12/02 12:38:11;;;;;;;59.13;23.38;;;4.70;99.90;;;;;;4901960;29;22526;-77
2023/12/02 12:40:41;;;;;;;59.83;16.98;;;4.70;99.90;;;;;;4901667;29;20146;-75
2023/12/02 12:43:13;;;;;;;49.45;17.63;;;4.70;99.90;;;;;;4915727;28;20123;-75
2023/12/02 12:45:42;;;;;;;55.55;16.55;;;4.80;99.90;;;;;;4901888;29;20056;-75
2023/12/02 12:48:11;;;;;;;56.13;17.67;;;4.80;99.90;;;;;;4900594;29;20810;-75
2023/12/02 12:50:43;;;;;;;65.38;21.42;;;4.70;99.90;;;;;;4899793;29;20051;-75
2023/12/02 12:53:13;;;;;;;71.43;24.48;;;4.80;99.90;;;;;;4898357;29;20091;-76
2023/12/02 12:55:45;;;;;;;67.80;21.70;;;4.70;99.90;;;;;;4899316;29;20063;-76
2023/12/02 12:58:18;;;;;;;62.55;22.70;;;4.70;99.90;;;;;;4900447;29;20051;-76
2023/12/02 13:00:50;;;;;;;53.22;17.92;;;4.80;99.90;;;;;;4913373;29;20512;-76
2023/12/02 13:03:46;;;;;;;60.90;19.13;;;4.80;99.90;;;;;;4909874;29;20063;-76